Time;durP1;ratioP1;P1;durP2;ratioP2;P2;SDS_P1;SDS_P2;PMS_P1;PMS_P2;Temp;Humidity;BMP_temperature;BMP_pressure;BME280_temperature;BME280_humidity;BME280_pressure;Samples;Min_cycle;Max_cycle;Signal;HPM_P1;HPM_P2
2023/04/14 00:00:32;;;;;;;18.77;11.10;;;;;;;;;;8428644;28;20048;-89
2023/04/14 00:04:54;;;;;;;24.60;11.98;;;;;;;;;;8431165;28;20697;-90
2023/04/14 00:08:58;;;;;;;18.67;10.60;;;;;;;;;;8428340;28;20052;-89
2023/04/14 00:13:01;;;;;;;23.50;12.73;;;;;;;;;;8431179;28;20055;-89
2023/04/14 00:17:04;;;;;;;21.45;11.13;;;;;;;;;;8427699;28;20044;-90
2023/04/14 00:21:07;;;;;;;22.20;11.15;;;;;;;;;;8431120;28;20097;-89
2023/04/14 00:25:12;;;;;;;23.70;11.57;;;;;;;;;;8431018;28;20127;-89
2023/04/14 00:29:15;;;;;;;28.17;13.68;;;;;;;;;;8425591;28;20506;-89
2023/04/14 00:33:17;;;;;;;23.95;12.65;;;;;;;;;;8431122;28;20407;-89
2023/04/14 00:37:20;;;;;;;23.85;13.68;;;;;;;;;;8430396;28;20093;-89
2023/04/14 00:41:25;;;;;;;22.70;14.15;;;;;;;;;;8422499;28;20541;-89
2023/04/14 00:45:28;;;;;;;25.80;13.13;;;;;;;;;;8417548;28;20044;-89
2023/04/14 00:49:31;;;;;;;24.55;13.38;;;;;;;;;;8429429;28;20044;-88
2023/04/14 00:53:34;;;;;;;23.35;11.57;;;;;;;;;;8417104;28;20501;-89
2023/04/14 00:57:38;;;;;;;23.60;12.02;;;;;;;;;;8430435;28;20512;-88
2023/04/14 01:01:41;;;;;;;26.65;14.05;;;;;;;;;;8416718;28;20101;-89
2023/04/14 01:05:44;;;;;;;24.15;12.27;;;;;;;;;;8430364;28;20040;-89
2023/04/14 01:09:47;;;;;;;28.35;13.90;;;;;;;;;;8416957;28;20055;-88
2023/04/14 01:14:02;;;;;;;29.70;14.77;;;;;;;;;;8429749;28;20445;-91
2023/04/14 01:18:11;;;;;;;27.73;14.73;;;;;;;;;;8416910;28;20133;-90
2023/04/14 01:22:18;;;;;;;26.88;15.32;;;;;;;;;;8416215;28;20472;-89
2023/04/14 01:26:28;;;;;;;29.00;15.70;;;;;;;;;;8418431;28;20128;-90
2023/04/14 01:30:57;;;;;;;31.45;15.30;;;;;;;;;;8426727;28;20043;-89
2023/04/14 01:35:08;;;;;;;33.20;16.85;;;;;;;;;;8429395;28;20040;-89
2023/04/14 01:39:14;;;;;;;32.15;16.08;;;;;;;;;;8429294;28;20504;-90
2023/04/14 01:43:21;;;;;;;29.92;14.38;;;;;;;;;;8429224;28;20136;-89
2023/04/14 01:47:26;;;;;;;25.45;14.35;;;;;;;;;;8429263;28;20116;-89
2023/04/14 01:51:32;;;;;;;37.28;18.20;;;;;;;;;;8427966;28;20507;-89
2023/04/14 01:55:37;;;;;;;36.10;19.23;;;;;;;;;;8428970;28;20048;-89
2023/04/14 01:59:42;;;;;;;42.80;23.27;;;;;;;;;;8428808;28;20051;-89
2023/04/14 02:03:46;;;;;;;46.05;25.30;;;;;;;;;;8428802;28;20048;-89
2023/04/14 02:07:51;;;;;;;46.58;24.65;;;;;;;;;;8428639;28;20051;-90
2023/04/14 02:11:55;;;;;;;33.13;18.60;;;;;;;;;;8428740;28;20487;-89
2023/04/14 02:16:00;;;;;;;31.40;15.15;;;;;;;;;;8428647;28;20127;-89
2023/04/14 02:20:05;;;;;;;291.85;85.80;;;;;;;;;;8428461;28;20048;-89
2023/04/14 02:24:10;;;;;;;176.70;53.75;;;;;;;;;;8422324;28;20044;-88
2023/04/14 02:28:18;;;;;;;50.35;22.60;;;;;;;;;;8428487;28;20131;-88
2023/04/14 02:32:25;;;;;;;35.83;18.30;;;;;;;;;;8428004;28;20048;-88
2023/04/14 02:36:34;;;;;;;37.42;18.70;;;;;;;;;;8428370;28;20123;-88
2023/04/14 02:40:41;;;;;;;38.35;17.33;;;;;;;;;;8428211;28;20435;-88
2023/04/14 02:44:49;;;;;;;35.05;18.17;;;;;;;;;;8428242;28;20115;-89
2023/04/14 02:48:52;;;;;;;31.92;17.30;;;;;;;;;;8428183;28;20044;-88
2023/04/14 02:52:56;;;;;;;67.72;29.65;;;;;;;;;;8427902;28;20075;-88
2023/04/14 02:57:02;;;;;;;126.95;50.65;;;;;;;;;;8426008;28;20377;-89
2023/04/14 03:01:05;;;;;;;60.67;29.65;;;;;;;;;;8425398;28;20479;-89
2023/04/14 03:05:09;;;;;;;69.47;38.47;;;;;;;;;;8434004;28;20089;-88
2023/04/14 03:09:13;;;;;;;133.10;58.00;;;;;;;;;;8435266;28;20484;-88
2023/04/14 03:13:18;;;;;;;130.15;48.38;;;;;;;;;;8433701;28;20051;-89
2023/04/14 03:17:22;;;;;;;70.15;36.38;;;;;;;;;;8433155;28;20079;-89
2023/04/14 03:21:27;;;;;;;57.55;29.45;;;;;;;;;;8433713;28;20048;-88
2023/04/14 03:25:32;;;;;;;88.75;46.75;;;;;;;;;;8433490;28;20051;-89
2023/04/14 03:29:40;;;;;;;97.22;37.13;;;;;;;;;;8433475;28;20097;-89
2023/04/14 03:33:45;;;;;;;86.00;45.35;;;;;;;;;;8433291;28;20040;-88
2023/04/14 03:37:50;;;;;;;93.25;37.00;;;;;;;;;;8433196;28;20047;-89
2023/04/14 03:41:56;;;;;;;35.10;18.13;;;;;;;;;;8433171;28;20512;-89
2023/04/14 03:46:01;;;;;;;41.00;21.15;;;;;;;;;;8432994;28;20047;-89
2023/04/14 03:50:08;;;;;;;32.63;16.55;;;;;;;;;;8431850;28;20376;-89
2023/04/14 03:54:14;;;;;;;28.45;15.93;;;;;;;;;;8432711;28;20040;-89
2023/04/14 03:58:18;;;;;;;33.75;18.17;;;;;;;;;;8432599;28;20044;-87
2023/04/14 04:02:23;;;;;;;76.70;37.20;;;;;;;;;;8432448;28;20132;-88
2023/04/14 04:06:27;;;;;;;49.30;26.90;;;;;;;;;;8432273;28;20036;-88
2023/04/14 04:10:32;;;;;;;43.72;26.23;;;;;;;;;;8431343;28;20491;-89
2023/04/14 04:14:39;;;;;;;43.30;27.45;;;;;;;;;;8430973;28;20487;-88
2023/04/14 04:18:47;;;;;;;54.10;30.75;;;;;;;;;;8430575;28;20054;-91
2023/04/14 04:22:52;;;;;;;54.60;30.38;;;;;;;;;;8431812;28;20040;-88
2023/04/14 04:26:55;;;;;;;65.88;31.35;;;;;;;;;;8431281;28;20071;-89
2023/04/14 04:31:00;;;;;;;61.58;31.25;;;;;;;;;;8431628;28;20055;-88
2023/04/14 04:35:06;;;;;;;65.03;33.03;;;;;;;;;;8431226;28;20048;-88
2023/04/14 04:39:09;;;;;;;62.58;30.67;;;;;;;;;;8431292;28;20127;-89
2023/04/14 04:43:12;;;;;;;51.72;26.80;;;;;;;;;;8430800;28;20122;-88
2023/04/14 04:47:15;;;;;;;54.65;28.48;;;;;;;;;;8430972;28;20047;-89
2023/04/14 04:51:20;;;;;;;63.13;33.13;;;;;;;;;;8428718;28;20042;-88
2023/04/14 04:55:23;;;;;;;48.20;26.10;;;;;;;;;;8430586;28;20532;-89
2023/04/14 04:59:26;;;;;;;64.03;36.05;;;;;;;;;;8430340;28;20048;-89
2023/04/14 05:03:29;;;;;;;23.30;13.75;;;;;;;;;;8430390;28;20489;-90
2023/04/14 05:07:33;;;;;;;19.00;10.57;;;;;;;;;;8430159;28;20138;-89
2023/04/14 05:11:36;;;;;;;18.42;10.07;;;;;;;;;;8427476;28;20036;-90
2023/04/14 05:15:39;;;;;;;30.52;13.13;;;;;;;;;;8428919;28;20122;-90
2023/04/14 05:19:42;;;;;;;27.83;13.75;;;;;;;;;;8427838;28;20068;-89
2023/04/14 05:23:47;;;;;;;34.03;18.70;;;;;;;;;;8428455;28;20056;-89
2023/04/14 05:27:50;;;;;;;31.90;16.58;;;;;;;;;;8429392;28;20050;-89
2023/04/14 05:31:53;;;;;;;30.27;16.55;;;;;;;;;;8429137;28;20040;-90
2023/04/14 05:35:56;;;;;;;39.13;20.60;;;;;;;;;;8427146;28;20416;-89
2023/04/14 05:40:00;;;;;;;37.65;20.75;;;;;;;;;;8422657;28;20064;-91
2023/04/14 05:44:03;;;;;;;19.77;11.32;;;;;;;;;;8425559;28;20072;-88
2023/04/14 05:48:06;;;;;;;42.25;20.85;;;;;;;;;;8429098;28;20044;-90
2023/04/14 05:52:09;;;;;;;15.40;10.00;;;;;;;;;;8428891;28;20044;-90
2023/04/14 05:56:13;;;;;;;16.45;9.85;;;;;;;;;;8418646;28;20054;-90
2023/04/14 06:00:17;;;;;;;21.13;12.77;;;;;;;;;;8428777;28;20127;-90
2023/04/14 06:04:19;;;;;;;16.55;9.55;;;;;;;;;;8428773;28;20097;-91
2023/04/14 06:08:24;;;;;;;14.65;8.27;;;;;;;;;;8428749;28;20084;-91
2023/04/14 06:12:28;;;;;;;16.58;8.50;;;;;;;;;;8424818;28;20123;-91
2023/04/14 06:16:31;;;;;;;15.38;7.85;;;;;;;;;;8426275;28;20132;-89
2023/04/14 06:20:35;;;;;;;16.20;10.48;;;;;;;;;;8426566;28;20040;-90
2023/04/14 06:24:39;;;;;;;17.50;7.85;;;;;;;;;;8426186;28;20035;-89
2023/04/14 06:28:44;;;;;;;13.05;7.30;;;;;;;;;;8421438;28;20393;-91
2023/04/14 06:32:47;;;;;;;11.45;7.22;;;;;;;;;;8410773;28;20076;-91
2023/04/14 06:36:50;;;;;;;14.35;7.78;;;;;;;;;;8426336;28;20056;-90
2023/04/14 06:41:07;;;;;;;11.98;6.90;;;;;;;;;;8426951;28;20110;-89
2023/04/14 06:45:12;;;;;;;9.90;6.82;;;;;;;;;;8433281;28;20144;-89
2023/04/14 06:49:16;;;;;;;9.27;5.63;;;;;;;;;;8432548;28;20075;-90
2023/04/14 06:53:19;;;;;;;9.55;6.28;;;;;;;;;;8428930;28;20048;-91
2023/04/14 06:57:22;;;;;;;10.32;5.93;;;;;;;;;;8427738;28;20114;-92
2023/04/14 07:01:27;;;;;;;10.30;5.38;;;;;;;;;;8431094;28;20130;-91
2023/04/14 07:05:29;;;;;;;17.45;8.85;;;;;;;;;;8432569;28;20048;-93
2023/04/14 07:09:33;;;;;;;12.25;6.97;;;;;;;;;;8432304;28;20460;-92
2023/04/14 07:13:37;;;;;;;8.25;4.88;;;;;;;;;;8434769;28;20532;-94
2023/04/14 07:17:42;;;;;;;7.85;5.00;;;;;;;;;;8433584;28;20130;-92
2023/04/14 07:21:48;;;;;;;8.38;5.30;;;;;;;;;;8433376;28;20040;-92
2023/04/14 07:25:52;;;;;;;10.82;9.35;;;;;;;;;;8418436;28;20858;-90
2023/04/14 07:29:55;;;;;;;9.05;4.43;;;;;;;;;;8428887;28;20117;-94
2023/04/14 07:34:00;;;;;;;8.82;4.70;;;;;;;;;;8414922;28;20048;-92
2023/04/14 07:38:03;;;;;;;6.20;4.00;;;;;;;;;;8429058;28;20449;-91
2023/04/14 07:42:10;;;;;;;8.38;4.50;;;;;;;;;;8429330;28;20040;-93
2023/04/14 07:46:16;;;;;;;6.93;4.15;;;;;;;;;;8429698;28;20127;-94
2023/04/14 07:50:24;;;;;;;9.32;5.20;;;;;;;;;;8428594;28;20044;-91
2023/04/14 07:54:31;;;;;;;10.65;4.47;;;;;;;;;;8428292;28;20054;-90
2023/04/14 07:58:34;;;;;;;9.10;4.85;;;;;;;;;;8429463;28;20040;-92
2023/04/14 08:02:37;;;;;;;7.60;4.43;;;;;;;;;;8424332;28;20033;-92
2023/04/14 08:06:41;;;;;;;11.48;4.07;;;;;;;;;;8416724;28;20130;-92
2023/04/14 08:10:44;;;;;;;5.35;3.83;;;;;;;;;;8414310;28;20048;-90
2023/04/14 08:14:47;;;;;;;6.78;3.60;;;;;;;;;;8411576;28;20529;-91
2023/04/14 08:18:50;;;;;;;7.05;4.28;;;;;;;;;;8421991;28;20071;-92
2023/04/14 08:22:55;;;;;;;8.88;4.25;;;;;;;;;;8420672;28;20151;-92
2023/04/14 08:27:00;;;;;;;9.10;4.70;;;;;;;;;;8406382;28;20048;-92
2023/04/14 08:31:04;;;;;;;7.43;3.67;;;;;;;;;;8415656;28;20048;-90
2023/04/14 08:35:07;;;;;;;6.97;4.65;;;;;;;;;;8422415;28;20047;-90
2023/04/14 08:39:12;;;;;;;6.90;4.53;;;;;;;;;;8417907;28;20089;-92
2023/04/14 08:43:16;;;;;;;6.72;4.13;;;;;;;;;;8422695;28;20109;-91
2023/04/14 08:47:21;;;;;;;16.55;11.68;;;;;;;;;;8411325;28;20104;-91
2023/04/14 08:51:31;;;;;;;7.28;4.07;;;;;;;;;;8417316;28;20046;-91
2023/04/14 08:55:39;;;;;;;21.13;7.35;;;;;;;;;;8416301;28;20059;-92
2023/04/14 08:59:43;;;;;;;9.40;5.03;;;;;;;;;;8413123;28;20054;-91
2023/04/14 09:03:47;;;;;;;9.00;5.40;;;;;;;;;;8411265;28;20055;-92
2023/04/14 09:07:51;;;;;;;6.90;4.43;;;;;;;;;;8411367;28;20131;-91
2023/04/14 09:11:57;;;;;;;8.77;4.82;;;;;;;;;;8416075;28;20135;-92
2023/04/14 09:16:00;;;;;;;7.63;4.88;;;;;;;;;;8412714;28;20201;-91
2023/04/14 09:20:04;;;;;;;8.70;5.40;;;;;;;;;;8411461;28;20044;-91
2023/04/14 09:24:09;;;;;;;12.15;6.97;;;;;;;;;;8421927;28;20154;-92
2023/04/14 09:28:14;;;;;;;7.40;4.00;;;;;;;;;;8425295;28;20044;-94
2023/04/14 09:32:20;;;;;;;6.32;4.57;;;;;;;;;;8419385;28;20094;-91
2023/04/14 09:36:24;;;;;;;7.32;4.70;;;;;;;;;;8423936;28;20067;-91
2023/04/14 09:40:28;;;;;;;7.05;4.60;;;;;;;;;;8410912;28;20036;-89
2023/04/14 09:44:33;;;;;;;9.13;4.85;;;;;;;;;;8424738;28;20189;-90
2023/04/14 09:48:55;;;;;;;35.45;19.13;;;;;;;;;;8418213;28;20041;-92
2023/04/14 09:53:04;;;;;;;8.05;4.15;;;;;;;;;;8422534;28;20063;-90
2023/04/14 09:57:11;;;;;;;7.47;3.30;;;;;;;;;;8427139;28;20052;-93
2023/04/14 10:01:27;;;;;;;5.60;3.88;;;;;;;;;;8430501;28;20837;-91
2023/04/14 10:05:31;;;;;;;11.07;5.07;;;;;;;;;;8427565;28;20480;-91
2023/04/14 10:09:37;;;;;;;27.67;10.52;;;;;;;;;;8426571;28;20123;-92
2023/04/14 10:13:41;;;;;;;6.70;3.58;;;;;;;;;;8430602;28;20377;-91
2023/04/14 10:17:46;;;;;;;5.93;3.63;;;;;;;;;;8432589;28;20465;-92
2023/04/14 10:21:49;;;;;;;8.60;4.95;;;;;;;;;;8426534;28;20044;-91
2023/04/14 10:25:54;;;;;;;5.05;3.25;;;;;;;;;;8428328;28;20064;-92
2023/04/14 10:29:58;;;;;;;7.30;4.70;;;;;;;;;;8428733;28;20519;-91
2023/04/14 10:34:09;;;;;;;7.63;5.00;;;;;;;;;;8431323;28;20055;-91
2023/04/14 10:38:13;;;;;;;7.80;5.22;;;;;;;;;;8420423;28;20100;-88
2023/04/14 10:42:16;;;;;;;60.35;27.27;;;;;;;;;;8415745;28;20040;-90
2023/04/14 10:46:20;;;;;;;7.70;5.30;;;;;;;;;;8423598;28;20048;-90
2023/04/14 10:50:25;;;;;;;8.65;5.20;;;;;;;;;;8426604;28;20051;-90
2023/04/14 10:54:28;;;;;;;8.00;4.85;;;;;;;;;;8426506;28;20127;-91
2023/04/14 10:58:34;;;;;;;22.23;11.45;;;;;;;;;;8413748;28;20041;-90
2023/04/14 11:02:37;;;;;;;10.45;5.13;;;;;;;;;;8426409;28;20126;-91
2023/04/14 11:06:57;;;;;;;7.47;4.35;;;;;;;;;;8429345;28;20040;-92
2023/04/14 11:11:02;;;;;;;19.17;8.38;;;;;;;;;;8423825;28;20502;-91
2023/04/14 11:15:07;;;;;;;9.77;5.13;;;;;;;;;;8429094;28;20051;-92
2023/04/14 11:19:14;;;;;;;7.40;4.63;;;;;;;;;;8428467;28;20060;-90
2023/04/14 11:23:27;;;;;;;13.45;7.60;;;;;;;;;;8421681;28;20086;-89
2023/04/14 11:27:33;;;;;;;7.15;4.85;;;;;;;;;;8410556;28;20056;-90
2023/04/14 11:31:36;;;;;;;11.07;6.07;;;;;;;;;;8429520;28;20484;-91
2023/04/14 11:35:41;;;;;;;11.13;3.88;;;;;;;;;;8419724;28;20509;-89
2023/04/14 11:39:47;;;;;;;6.90;4.10;;;;;;;;;;8414999;28;20122;-91
2023/04/14 11:43:51;;;;;;;27.70;11.75;;;;;;;;;;8413865;28;20120;-90
2023/04/14 11:48:00;;;;;;;6.85;4.20;;;;;;;;;;8418916;28;20048;-92
2023/04/14 11:52:07;;;;;;;6.00;4.35;;;;;;;;;;8414136;28;20044;-91
2023/04/14 11:56:14;;;;;;;42.15;19.60;;;;;;;;;;8427682;28;20530;-90
2023/04/14 12:00:16;;;;;;;8.00;4.47;;;;;;;;;;8423250;28;20056;-90
2023/04/14 12:04:21;;;;;;;6.40;3.92;;;;;;;;;;8423682;28;20044;-89
2023/04/14 12:08:24;;;;;;;8.73;5.35;;;;;;;;;;8407290;28;20127;-92
2023/04/14 12:12:32;;;;;;;10.57;6.43;;;;;;;;;;8429845;28;20044;-91
2023/04/14 12:16:36;;;;;;;7.03;4.72;;;;;;;;;;8429701;28;20129;-91
2023/04/14 12:20:43;;;;;;;7.25;4.72;;;;;;;;;;8426895;28;20051;-90
2023/04/14 12:24:46;;;;;;;10.43;5.20;;;;;;;;;;8415905;28;20048;-91
2023/04/14 12:28:57;;;;;;;10.52;5.18;;;;;;;;;;8429146;28;20114;-91
2023/04/14 12:33:08;;;;;;;9.63;5.57;;;;;;;;;;8428923;28;20457;-91
2023/04/14 12:37:12;;;;;;;8.27;5.07;;;;;;;;;;8431644;28;20036;-90
2023/04/14 12:41:22;;;;;;;7.15;4.72;;;;;;;;;;8431930;28;20437;-91
2023/04/14 12:45:27;;;;;;;7.40;4.97;;;;;;;;;;8431441;28;20827;-91
2023/04/14 12:49:32;;;;;;;8.20;4.63;;;;;;;;;;8431050;28;20040;-89
2023/04/14 12:53:35;;;;;;;7.80;5.57;;;;;;;;;;8417195;28;20044;-89
2023/04/14 12:57:37;;;;;;;6.93;4.88;;;;;;;;;;8430735;28;20048;-89
2023/04/14 13:01:49;;;;;;;10.10;5.70;;;;;;;;;;8401834;28;20048;-90
2023/04/14 13:05:53;;;;;;;;;;;;;;;;;;8411607;28;20048;-90
2023/04/14 13:09:57;;;;;;;8.38;5.65;;;;;;;;;;8423886;28;20303;-88
2023/04/14 13:14:00;;;;;;;9.45;5.43;;;;;;;;;;8424850;28;20047;-90
2023/04/14 13:18:06;;;;;;;9.45;5.38;;;;;;;;;;8415511;28;20063;-89
2023/04/14 13:22:10;;;;;;;8.57;5.38;;;;;;;;;;8428485;28;20048;-89
2023/04/14 13:26:13;;;;;;;9.43;6.32;;;;;;;;;;8427826;28;20131;-92
2023/04/14 13:30:17;;;;;;;9.20;6.47;;;;;;;;;;8428857;28;20048;-93
2023/04/14 13:34:22;;;;;;;8.95;5.70;;;;;;;;;;8419841;28;20047;-92
2023/04/14 13:38:26;;;;;;;8.75;5.60;;;;;;;;;;8418564;28;20403;-91
2023/04/14 13:42:29;;;;;;;10.45;5.93;;;;;;;;;;8417551;28;20105;-92
2023/04/14 13:46:33;;;;;;;10.00;6.22;;;;;;;;;;8420928;28;20442;-91
2023/04/14 13:50:37;;;;;;;9.40;5.95;;;;;;;;;;8424262;28;20050;-95
2023/04/14 13:54:40;;;;;;;9.07;5.70;;;;;;;;;;8422661;28;20560;-92
2023/04/14 13:58:44;;;;;;;8.48;5.28;;;;;;;;;;8426113;28;20052;-91
2023/04/14 14:02:47;;;;;;;8.85;5.68;;;;;;;;;;8427445;28;20063;-91
2023/04/14 14:06:52;;;;;;;7.22;5.03;;;;;;;;;;8428445;28;20055;-90
2023/04/14 14:10:54;;;;;;;9.55;5.68;;;;;;;;;;8427293;28;20055;-91
2023/04/14 14:14:57;;;;;;;8.95;5.90;;;;;;;;;;8427679;28;20048;-91
2023/04/14 14:19:00;;;;;;;8.30;5.03;;;;;;;;;;8428685;28;20091;-89
2023/04/14 14:23:05;;;;;;;7.63;5.63;;;;;;;;;;8427731;28;20073;-89
2023/04/14 14:27:08;;;;;;;9.57;6.07;;;;;;;;;;8429064;28;20115;-87
2023/04/14 14:31:11;;;;;;;25.90;13.95;;;;;;;;;;8429497;28;20040;-90
2023/04/14 14:35:15;;;;;;;8.88;5.00;;;;;;;;;;8428751;28;20047;-90
2023/04/14 14:39:20;;;;;;;13.20;7.38;;;;;;;;;;8428651;28;20086;-90
2023/04/14 14:43:23;;;;;;;8.60;5.07;;;;;;;;;;8428885;28;20511;-92
2023/04/14 14:47:26;;;;;;;13.07;8.25;;;;;;;;;;8429250;28;20063;-90
2023/04/14 14:51:29;;;;;;;9.77;6.05;;;;;;;;;;8428227;28;20124;-90
2023/04/14 14:55:33;;;;;;;26.25;13.82;;;;;;;;;;8428615;28;20476;-90
2023/04/14 14:59:36;;;;;;;14.32;8.57;;;;;;;;;;8433409;28;20058;-90
2023/04/14 15:03:39;;;;;;;24.73;12.18;;;;;;;;;;8434228;28;20051;-88
2023/04/14 15:07:43;;;;;;;9.38;5.70;;;;;;;;;;8433135;28;20476;-91
2023/04/14 15:11:54;;;;;;;36.65;19.50;;;;;;;;;;8431365;28;20059;-92
2023/04/14 15:15:58;;;;;;;26.92;14.48;;;;;;;;;;8434308;28;20052;-91
2023/04/14 15:20:04;;;;;;;10.68;7.25;;;;;;;;;;8418549;28;20073;-90
2023/04/14 15:24:11;;;;;;;8.63;5.38;;;;;;;;;;8411051;28;20040;-92
2023/04/14 15:28:22;;;;;;;10.90;6.72;;;;;;;;;;8425793;28;20056;-90
2023/04/14 15:32:31;;;;;;;6.95;4.18;;;;;;;;;;8417695;28;20131;-90
2023/04/14 15:36:42;;;;;;;8.32;4.32;;;;;;;;;;8427460;28;20056;-90
2023/04/14 15:40:54;;;;;;;7.50;4.65;;;;;;;;;;8411341;28;20054;-89
2023/04/14 15:45:00;;;;;;;9.75;5.05;;;;;;;;;;8417042;28;20473;-91
2023/04/14 15:49:08;;;;;;;35.40;18.95;;;;;;;;;;8418271;28;20658;-91
2023/04/14 15:53:12;;;;;;;27.05;11.48;;;;;;;;;;8418111;28;20141;-91
2023/04/14 15:57:20;;;;;;;7.70;4.78;;;;;;;;;;8425990;28;20044;-93
2023/04/14 16:01:38;;;;;;;31.65;11.10;;;;;;;;;;8424651;28;20049;-90
2023/04/14 16:05:52;;;;;;;7.70;5.13;;;;;;;;;;8411020;28;20102;-89
2023/04/14 16:10:14;;;;;;;39.72;17.80;;;;;;;;;;8427629;28;20044;-92
2023/04/14 16:14:33;;;;;;;6.65;4.85;;;;;;;;;;8427696;28;20051;-91
2023/04/14 16:18:47;;;;;;;14.95;10.00;;;;;;;;;;8422763;28;20090;-91
2023/04/14 16:22:54;;;;;;;9.65;5.72;;;;;;;;;;8423121;28;20542;-87
2023/04/14 16:27:00;;;;;;;16.27;10.38;;;;;;;;;;8425221;28;21379;-91
2023/04/14 16:31:13;;;;;;;12.05;7.82;;;;;;;;;;8426109;28;20126;-90
2023/04/14 16:35:18;;;;;;;6.38;4.43;;;;;;;;;;8419804;28;20153;-89
2023/04/14 16:39:21;;;;;;;5.55;3.85;;;;;;;;;;8417494;28;20822;-89
2023/04/14 16:43:26;;;;;;;20.88;12.43;;;;;;;;;;8411641;28;20040;-91
2023/04/14 16:47:30;;;;;;;10.50;6.88;;;;;;;;;;8416752;28;20048;-90
2023/04/14 16:51:36;;;;;;;9.15;5.20;;;;;;;;;;8419236;28;20058;-90
2023/04/14 16:55:40;;;;;;;13.65;6.45;;;;;;;;;;8411212;28;20037;-90
2023/04/14 16:59:44;;;;;;;13.65;5.95;;;;;;;;;;8411469;28;20450;-89
2023/04/14 17:03:48;;;;;;;16.38;8.70;;;;;;;;;;8415746;28;20048;-90
2023/04/14 17:07:53;;;;;;;10.43;5.55;;;;;;;;;;8418460;28;20055;-91
2023/04/14 17:11:56;;;;;;;17.30;9.75;;;;;;;;;;8423673;28;20048;-89
2023/04/14 17:15:59;;;;;;;17.98;12.48;;;;;;;;;;8419148;28;20056;-90
2023/04/14 17:20:05;;;;;;;10.73;6.50;;;;;;;;;;8420750;28;20113;-89
2023/04/14 17:24:10;;;;;;;16.70;7.75;;;;;;;;;;8423726;28;20048;-89
2023/04/14 17:28:14;;;;;;;9.77;5.78;;;;;;;;;;8420549;28;20040;-90
2023/04/14 17:32:21;;;;;;;12.90;3.95;;;;;;;;;;8422671;28;20072;-92
2023/04/14 17:36:28;;;;;;;8.48;4.75;;;;;;;;;;8427691;28;20660;-88
2023/04/14 17:40:43;;;;;;;12.38;6.80;;;;;;;;;;8422617;28;20480;-89
2023/04/14 17:44:48;;;;;;;15.43;7.25;;;;;;;;;;8416219;28;20044;-90
2023/04/14 17:48:53;;;;;;;12.93;6.15;;;;;;;;;;8417174;28;20450;-90
2023/04/14 17:52:58;;;;;;;8.63;5.93;;;;;;;;;;8431898;28;20071;-92
2023/04/14 17:57:04;;;;;;;9.10;5.38;;;;;;;;;;8446775;28;20472;-88
2023/04/14 18:01:09;;;;;;;12.30;5.63;;;;;;;;;;8421105;28;20070;-89
2023/04/14 18:05:14;;;;;;;11.70;6.88;;;;;;;;;;8425850;28;20127;-87
2023/04/14 18:09:18;;;;;;;22.58;10.30;;;;;;;;;;8425550;28;20086;-89
2023/04/14 18:13:26;;;;;;;208.60;80.18;;;;;;;;;;8426728;28;20428;-89
2023/04/14 18:17:33;;;;;;;17.88;11.60;;;;;;;;;;8428613;28;20048;-88
2023/04/14 18:21:37;;;;;;;11.38;6.55;;;;;;;;;;8429293;28;20614;-90
2023/04/14 18:25:40;;;;;;;14.05;8.55;;;;;;;;;;8444842;28;20040;-88
2023/04/14 18:29:51;;;;;;;10.25;6.55;;;;;;;;;;8412712;28;20480;-89
2023/04/14 18:33:56;;;;;;;20.50;10.52;;;;;;;;;;8427215;28;20480;-89
2023/04/14 18:38:01;;;;;;;38.92;15.25;;;;;;;;;;8423073;28;20572;-91
2023/04/14 18:42:12;;;;;;;14.02;8.75;;;;;;;;;;8434080;28;20059;-89
2023/04/14 18:46:20;;;;;;;26.35;9.50;;;;;;;;;;8422296;28;20469;-89
2023/04/14 18:50:26;;;;;;;21.13;10.40;;;;;;;;;;8432508;28;20043;-89
2023/04/14 18:54:32;;;;;;;12.02;7.25;;;;;;;;;;8436488;28;20043;-89
2023/04/14 18:58:36;;;;;;;20.35;7.82;;;;;;;;;;8425561;28;20051;-91
2023/04/14 19:02:42;;;;;;;19.02;7.35;;;;;;;;;;8432858;28;20415;-91
2023/04/14 19:06:48;;;;;;;17.27;9.65;;;;;;;;;;8433245;28;20044;-88
2023/04/14 19:10:54;;;;;;;10.40;6.45;;;;;;;;;;8433708;28;20116;-90
2023/04/14 19:15:01;;;;;;;14.55;7.88;;;;;;;;;;8433572;28;20122;-89
2023/04/14 19:19:09;;;;;;;16.40;8.52;;;;;;;;;;8433734;28;20140;-89
2023/04/14 19:23:16;;;;;;;11.13;6.40;;;;;;;;;;8433891;28;20048;-90
2023/04/14 19:27:20;;;;;;;9.60;5.63;;;;;;;;;;8433871;28;20044;-90
2023/04/14 19:31:27;;;;;;;9.60;5.47;;;;;;;;;;8433424;28;20048;-89
2023/04/14 19:35:35;;;;;;;10.75;6.18;;;;;;;;;;8433388;28;20040;-88
2023/04/14 19:39:39;;;;;;;8.35;5.07;;;;;;;;;;8432217;28;20078;-88
2023/04/14 19:43:47;;;;;;;11.10;6.82;;;;;;;;;;8432705;28;20047;-89
2023/04/14 19:47:52;;;;;;;12.90;6.68;;;;;;;;;;8433534;28;20411;-89
2023/04/14 19:52:01;;;;;;;8.43;5.68;;;;;;;;;;8432995;28;20101;-89
2023/04/14 19:56:06;;;;;;;12.13;7.32;;;;;;;;;;8432940;28;20086;-88
2023/04/14 20:00:11;;;;;;;15.90;8.20;;;;;;;;;;8432533;28;20044;-88
2023/04/14 20:04:14;;;;;;;12.70;6.22;;;;;;;;;;8425070;28;20125;-88
2023/04/14 20:08:21;;;;;;;11.52;6.13;;;;;;;;;;8419418;28;20066;-88
2023/04/14 20:12:24;;;;;;;9.90;5.38;;;;;;;;;;8432442;28;20122;-88
2023/04/14 20:16:28;;;;;;;11.30;5.47;;;;;;;;;;8431978;28;20082;-88
2023/04/14 20:20:31;;;;;;;9.82;5.05;;;;;;;;;;8430653;28;20546;-88
2023/04/14 20:24:38;;;;;;;9.18;4.25;;;;;;;;;;8432208;28;20036;-90
2023/04/14 20:28:42;;;;;;;7.47;3.50;;;;;;;;;;8431695;28;20131;-87
2023/04/14 20:32:47;;;;;;;10.48;5.68;;;;;;;;;;8431627;28;20517;-89
2023/04/14 20:36:53;;;;;;;9.10;5.03;;;;;;;;;;8431439;28;20055;-87
2023/04/14 20:40:59;;;;;;;10.38;6.03;;;;;;;;;;8431637;28;20048;-88
2023/04/14 20:45:03;;;;;;;10.32;5.82;;;;;;;;;;8431346;28;20406;-90
2023/04/14 20:49:06;;;;;;;7.82;4.75;;;;;;;;;;8431631;28;20044;-88
2023/04/14 20:53:10;;;;;;;11.20;6.15;;;;;;;;;;8430791;28;20068;-88
2023/04/14 20:57:15;;;;;;;10.60;5.95;;;;;;;;;;8430048;28;20044;-87
2023/04/14 21:01:19;;;;;;;8.65;5.07;;;;;;;;;;8419644;28;20039;-91
2023/04/14 21:05:22;;;;;;;12.30;6.15;;;;;;;;;;8430589;28;20048;-88
2023/04/14 21:09:26;;;;;;;12.15;6.78;;;;;;;;;;8430251;28;20097;-88
2023/04/14 21:13:31;;;;;;;5.97;3.78;;;;;;;;;;8430148;28;20054;-87
2023/04/14 21:17:34;;;;;;;11.55;6.47;;;;;;;;;;8429934;28;20048;-87
2023/04/14 21:21:37;;;;;;;11.98;6.13;;;;;;;;;;8430195;28;20068;-88
2023/04/14 21:25:41;;;;;;;9.52;6.30;;;;;;;;;;8429645;28;20055;-88
2023/04/14 21:29:45;;;;;;;12.98;6.70;;;;;;;;;;8430099;28;20055;-88
2023/04/14 21:33:48;;;;;;;10.63;5.85;;;;;;;;;;8430042;28;20408;-88
2023/04/14 21:37:51;;;;;;;11.07;5.93;;;;;;;;;;8429663;28;20055;-89
2023/04/14 21:41:55;;;;;;;9.57;6.13;;;;;;;;;;8429985;28;20115;-88
2023/04/14 21:45:59;;;;;;;12.23;6.53;;;;;;;;;;8429650;28;20475;-87
2023/04/14 21:50:02;;;;;;;10.57;5.93;;;;;;;;;;8429387;28;20040;-89
2023/04/14 21:54:07;;;;;;;10.43;5.72;;;;;;;;;;8429575;28;20048;-89
2023/04/14 21:58:10;;;;;;;9.98;6.57;;;;;;;;;;8429024;28;20043;-88
2023/04/14 22:02:14;;;;;;;12.80;6.18;;;;;;;;;;8429092;28;20287;-91
2023/04/14 22:06:19;;;;;;;11.68;6.35;;;;;;;;;;8429185;28;20582;-90
2023/04/14 22:10:22;;;;;;;12.30;6.93;;;;;;;;;;8423613;28;20105;-88
2023/04/14 22:14:26;;;;;;;6.15;4.03;;;;;;;;;;8429071;28;20384;-89
2023/04/14 22:18:31;;;;;;;7.47;4.88;;;;;;;;;;8428231;28;20388;-88
2023/04/14 22:22:34;;;;;;;9.25;6.38;;;;;;;;;;8428595;28;20048;-88
2023/04/14 22:26:36;;;;;;;12.20;6.78;;;;;;;;;;8428634;28;20098;-88
2023/04/14 22:30:39;;;;;;;10.88;6.50;;;;;;;;;;8428452;28;20126;-89
2023/04/14 22:34:44;;;;;;;10.43;5.80;;;;;;;;;;8428649;28;20548;-88
2023/04/14 22:38:47;;;;;;;9.38;5.57;;;;;;;;;;8428423;28;20131;-89
2023/04/14 22:42:50;;;;;;;10.13;5.53;;;;;;;;;;8428294;28;20407;-88
2023/04/14 22:46:53;;;;;;;9.35;5.93;;;;;;;;;;8428453;28;20438;-90
2023/04/14 22:50:57;;;;;;;9.73;5.78;;;;;;;;;;8428379;28;20891;-90
2023/04/14 22:55:01;;;;;;;10.10;5.75;;;;;;;;;;8428326;28;20040;-89
2023/04/14 22:59:03;;;;;;;10.20;5.50;;;;;;;;;;8425661;28;20445;-91
2023/04/14 23:03:06;;;;;;;8.73;5.50;;;;;;;;;;8428059;28;20048;-88
2023/04/14 23:07:11;;;;;;;9.55;5.25;;;;;;;;;;8427755;28;20476;-88
2023/04/14 23:11:14;;;;;;;12.88;5.18;;;;;;;;;;8428088;28;20502;-88
2023/04/14 23:15:19;;;;;;;11.60;6.22;;;;;;;;;;8426353;28;20047;-89
2023/04/14 23:19:22;;;;;;;11.18;6.25;;;;;;;;;;8430534;28;20148;-90
2023/04/14 23:23:26;;;;;;;9.85;6.07;;;;;;;;;;8433901;28;20048;-89
2023/04/14 23:27:29;;;;;;;9.27;5.97;;;;;;;;;;8437749;28;20480;-89
2023/04/14 23:31:32;;;;;;;8.23;5.78;;;;;;;;;;8428273;28;20566;-89
2023/04/14 23:35:35;;;;;;;10.52;6.60;;;;;;;;;;8433377;28;20047;-91
2023/04/14 23:39:40;;;;;;;11.63;5.70;;;;;;;;;;8434002;28;20051;-89
2023/04/14 23:43:43;;;;;;;10.07;6.80;;;;;;;;;;8426390;28;20411;-91
2023/04/14 23:47:46;;;;;;;8.85;4.28;;;;;;;;;;8413762;28;20463;-89
2023/04/14 23:51:49;;;;;;;13.63;6.85;;;;;;;;;;8421582;28;20049;-90
2023/04/14 23:55:53;;;;;;;9.18;5.38;;;;;;;;;;8413933;28;20048;-89
2023/04/14 23:59:56;;;;;;;9.73;6.32;;;;;;;;;;8424910;28;20510;-93
